CPX789 Details

Departure: Changi International Airport (WSSS)
Arrival: Incheon International Airport (RKSI) at N/A
Route: TOMAN2A TOMAN L625 MEVIN B462 MJC IKEMA Y62 YURIX Y27 RUSAR Y579 CJU B576 OLMEN OLMEN1P
Notes:


Current Weather Information
WSSS 190730Z 14015KT 110V170 9999 FEW018TCU FEW020CB BKN300 31/22 Q1009 NOSIG
RKSI 190730Z 29010KT 230V310 9999 FEW030 19/12 Q1020 NOSIG